Time;durP1;ratioP1;P1;durP2;ratioP2;P2;SDS_P1;SDS_P2;PMS_P1;PMS_P2;Temp;Humidity;BMP_temperature;BMP_pressure;BME280_temperature;BME280_humidity;BME280_pressure;Samples;Min_cycle;Max_cycle;Signal;HPM_P1;HPM_P2
2021/07/01 00:00:26;;;;;;;14.95;9.70;;;;;;;15.65;78.91;101297.31;5133995;27;20054;-67
2021/07/01 00:02:53;;;;;;;12.25;9.52;;;;;;;15.70;78.88;101307.41;5115071;27;20058;-66
2021/07/01 00:05:21;;;;;;;20.05;10.90;;;;;;;15.79;78.85;101299.84;5115375;27;20054;-68
2021/07/01 00:07:49;;;;;;;16.20;9.10;;;;;;;16.16;77.33;101301.75;5115578;27;20378;-67
2021/07/01 00:10:20;;;;;;;13.77;9.70;;;;;;;15.89;77.72;101305.03;5134311;27;20512;-68
2021/07/01 00:12:47;;;;;;;13.57;9.25;;;;;;;15.73;77.96;101306.72;5115085;27;20039;-67
2021/07/01 00:15:19;;;;;;;13.32;8.68;;;;;;;15.95;77.53;101312.03;5114891;27;20069;-70
2021/07/01 00:17:46;;;;;;;13.43;8.70;;;;;;;15.83;76.39;101311.09;5115047;27;20043;-68
2021/07/01 00:20:14;;;;;;;12.43;8.82;;;;;;;15.72;77.14;101308.72;5133819;27;20043;-69
2021/07/01 00:22:42;;;;;;;13.13;9.23;;;;;;;15.48;78.78;101310.44;5133538;27;20063;-69
2021/07/01 00:25:12;;;;;;;13.13;8.73;;;;;;;15.45;78.70;101313.84;5133835;27;20397;-70
2021/07/01 00:27:40;;;;;;;15.55;9.25;;;;;;;15.62;78.22;101311.84;5114567;27;20062;-68
2021/07/01 00:30:11;;;;;;;13.32;9.18;;;;;;;15.66;78.20;101311.97;5115575;27;20402;-67
2021/07/01 00:32:38;;;;;;;15.15;9.27;;;;;;;16.06;77.31;101302.16;5133752;27;20051;-66
2021/07/01 00:35:07;;;;;;;16.70;9.43;;;;;;;16.24;76.46;101306.47;5132906;27;20043;-67
2021/07/01 00:37:35;;;;;;;13.35;9.25;;;;;;;16.11;76.48;101303.94;5115624;27;20430;-67
2021/07/01 00:40:06;;;;;;;14.43;9.45;;;;;;;15.95;76.46;101300.09;5115408;27;20516;-67
2021/07/01 00:42:33;;;;;;;13.60;8.85;;;;;;;16.28;75.75;101303.81;5133637;27;20548;-68
2021/07/01 00:45:01;;;;;;;11.95;8.15;;;;;;;15.70;76.32;101302.66;5133622;27;20058;-68
2021/07/01 00:47:30;;;;;;;13.02;8.60;;;;;;;15.42;78.12;101307.03;5115386;27;20064;-67
2021/07/01 00:49:59;;;;;;;14.38;8.43;;;;;;;15.33;78.75;101308.16;5114828;27;20054;-67
2021/07/01 00:52:26;;;;;;;10.35;8.02;;;;;;;15.29;78.94;101305.22;5115296;27;20050;-66
2021/07/01 00:54:54;;;;;;;11.38;8.02;;;;;;;15.43;78.56;101308.63;5133283;27;20054;-64
2021/07/01 00:57:22;;;;;;;13.23;8.27;;;;;;;15.44;78.35;101296.41;5115061;27;20048;-66
2021/07/01 00:59:50;;;;;;;15.88;9.98;;;;;;;15.29;79.32;101299.66;5113981;27;20043;-66
2021/07/01 01:02:18;;;;;;;13.95;8.90;;;;;;;15.32;79.98;101299.03;5114354;27;20054;-68
2021/07/01 01:09:18;;;;;;;14.57;9.55;;;;;;;16.06;76.78;101301.31;5111867;28;20051;-66
2021/07/01 01:11:45;;;;;;;13.40;9.15;;;;;;;15.67;78.75;101305.31;5110803;28;20052;-67
2021/07/01 01:14:17;;;;;;;13.73;9.02;;;;;;;15.75;77.98;101301.66;5094764;28;20051;-67
2021/07/01 01:16:52;;;;;;;15.52;9.88;;;;;;;15.87;77.88;101301.75;5078720;28;20043;-68
2021/07/01 01:23:48;;;;;;;15.50;10.30;;;;;;;15.53;80.01;101299.16;5093895;28;20046;-66
2021/07/01 01:26:15;;;;;;;16.00;9.80;;;;;;;15.51;80.25;101293.94;5112102;28;20402;-66
2021/07/01 01:28:48;;;;;;;15.15;10.18;;;;;;;15.47;80.50;101306.84;5111612;28;20047;-71
2021/07/01 01:31:17;;;;;;;14.13;9.88;;;;;;;15.66;80.33;101293.38;5112645;28;20048;-69
2021/07/01 01:38:15;;;;;;;13.57;10.32;;;;;;;16.01;79.23;101298.75;5112266;28;20042;-67
2021/07/01 01:40:44;;;;;;;16.45;11.20;;;;;;;16.04;79.10;101300.88;5111516;28;20043;-68
2021/07/01 01:43:13;;;;;;;18.30;11.57;;;;;;;15.65;80.53;101307.59;5111248;28;20059;-67
2021/07/01 01:45:41;;;;;;;17.15;11.75;;;;;;;15.70;80.37;101305.44;5093484;28;20051;-68
2021/07/01 01:52:46;;;;;;;15.77;11.25;;;;;;;15.65;81.40;101311.19;5112075;28;20051;-66
2021/07/01 01:55:16;;;;;;;17.13;10.63;;;;;;;15.67;80.87;101306.09;5093759;28;20051;-66
2021/07/01 01:57:46;;;;;;;15.65;12.05;;;;;;;15.71;80.81;101298.72;5077347;28;20044;-66
2021/07/01 02:00:17;;;;;;;14.50;11.32;;;;;;;15.99;80.28;101298.28;5093091;28;20048;-66
2021/07/01 02:02:57;;;;;;;18.45;12.00;;;;;;;15.96;79.98;101296.97;5095277;28;20060;-66
2021/07/01 02:10:05;;;;;;;19.10;11.95;;;;;;;15.95;79.10;101287.03;5093082;28;20063;-66
2021/07/01 02:12:34;;;;;;;18.42;11.65;;;;;;;15.81;80.36;101291.19;5093140;28;20051;-67
2021/07/01 02:15:06;;;;;;;17.92;12.50;;;;;;;15.74;79.75;101292.50;5093119;28;20056;-67
2021/07/01 02:17:43;;;;;;;17.98;10.93;;;;;;;15.88;79.91;101289.50;5094054;28;20059;-68
2021/07/01 02:24:39;;;;;;;17.25;10.98;;;;;;;15.55;81.11;101289.31;5111671;28;20035;-67
2021/07/01 02:27:08;;;;;;;18.67;11.35;;;;;;;15.55;81.21;101292.09;5092623;28;20059;-67
2021/07/01 02:29:37;;;;;;;19.15;11.90;;;;;;;15.81;80.19;101289.22;5095034;28;20059;-67
2021/07/01 02:32:12;;;;;;;16.77;11.32;;;;;;;16.30;78.68;101285.63;5096397;28;20050;-68
2021/07/01 02:34:42;;;;;;;17.48;11.00;;;;;;;16.03;77.98;101282.53;5096942;28;20044;-65
2021/07/01 02:37:28;;;;;;;17.23;11.80;;;;;;;15.38;81.46;101283.81;5100175;28;20062;-66
2021/07/01 02:40:06;;;;;;;19.55;11.88;;;;;;;15.56;81.23;101290.97;5115160;28;20372;-68
2021/07/01 02:42:49;;;;;;;21.23;11.63;;;;;;;15.76;80.26;101287.44;5096280;28;20048;-67
2021/07/01 02:45:17;;;;;;;16.67;11.60;;;;;;;15.67;80.54;101286.66;5096336;28;20078;-66
2021/07/01 02:47:53;;;;;;;19.65;11.82;;;;;;;15.52;81.48;101289.16;5096351;28;20043;-65
2021/07/01 02:50:21;;;;;;;15.68;10.95;;;;;;;15.88;79.93;101280.34;5096210;28;20043;-66
2021/07/01 02:52:49;;;;;;;21.42;12.00;;;;;;;16.23;78.86;101270.66;5096444;28;20043;-67
2021/07/01 02:55:17;;;;;;;16.95;11.82;;;;;;;15.69;80.17;101270.47;5079743;28;20509;-68
2021/07/01 02:57:45;;;;;;;18.90;11.18;;;;;;;15.96;79.44;101276.72;5096260;28;20055;-66
2021/07/01 03:00:15;;;;;;;17.48;12.23;;;;;;;15.75;80.13;101271.94;5095627;28;20043;-66
2021/07/01 03:02:45;;;;;;;16.90;11.85;;;;;;;15.63;80.85;101268.22;5080306;28;20486;-66
2021/07/01 03:05:31;;;;;;;16.52;11.90;;;;;;;15.50;81.35;101274.78;5114452;28;20051;-67
2021/07/01 03:08:00;;;;;;;17.00;12.70;;;;;;;15.39;81.84;101265.19;5100475;27;20055;-67
2021/07/01 03:10:29;;;;;;;20.10;12.75;;;;;;;15.56;81.24;101265.97;5116730;27;20051;-66
2021/07/01 03:13:01;;;;;;;16.25;12.02;;;;;;;15.57;80.94;101264.00;5116024;27;20413;-66
2021/07/01 03:15:33;;;;;;;22.65;11.68;;;;;;;16.01;79.70;101263.44;5116097;27;20150;-66
2021/07/01 03:18:02;;;;;;;20.42;11.82;;;;;;;16.10;79.08;101264.19;5116616;27;20058;-67
2021/07/01 03:20:53;;;;;;;15.68;11.98;;;;;;;16.09;78.54;101272.88;5134150;27;20062;-66
2021/07/01 03:23:32;;;;;;;21.13;13.38;;;;;;;15.95;79.10;101277.88;5116417;27;20051;-66
2021/07/01 03:26:00;;;;;;;19.65;12.77;;;;;;;16.01;78.86;101280.09;5115814;27;20478;-65
2021/07/01 03:28:29;;;;;;;26.35;13.82;;;;;;;16.25;78.00;101277.50;5083035;27;20462;-67
2021/07/01 03:30:56;;;;;;;19.33;13.93;;;;;;;16.37;77.20;101271.22;5134667;27;20062;-66
2021/07/01 03:33:24;;;;;;;23.55;14.85;;;;;;;15.61;79.57;101273.28;5134649;27;20046;-66
2021/07/01 03:35:52;;;;;;;21.92;15.70;;;;;;;15.61;80.47;101271.34;5133883;27;20051;-67
2021/07/01 03:38:45;;;;;;;25.48;16.52;;;;;;;15.74;79.13;101266.72;5102134;27;20055;-67
2021/07/01 03:41:22;;;;;;;23.77;15.07;;;;;;;15.43;80.96;101269.78;5114481;27;20346;-68
2021/07/01 03:43:52;;;;;;;22.75;15.63;;;;;;;15.77;80.38;101272.41;5116180;27;20555;-64
2021/07/01 03:46:21;;;;;;;25.55;15.98;;;;;;;15.93;79.05;101272.66;5099826;27;20056;-66
2021/07/01 03:48:49;;;;;;;20.35;14.57;;;;;;;15.84;79.17;101276.63;5115750;27;20402;-66
2021/07/01 03:51:35;;;;;;;29.70;14.95;;;;;;;16.00;78.58;101277.66;5118977;27;20039;-68
2021/07/01 03:54:14;;;;;;;21.38;12.95;;;;;;;15.66;79.06;101273.94;5115204;27;20512;-69
2021/07/01 03:56:42;;;;;;;19.25;13.57;;;;;;;15.64;79.62;101286.50;5115252;27;20043;-67
2021/07/01 03:59:16;;;;;;;20.13;13.50;;;;;;;15.66;79.39;101276.69;5099656;27;20057;-67
2021/07/01 04:02:02;;;;;;;18.35;12.55;;;;;;;15.87;78.43;101276.75;5118639;27;20043;-69
2021/07/01 04:08:59;;;;;;;17.17;11.57;;;;;;;15.73;78.82;101273.41;5114826;27;20366;-66
2021/07/01 04:11:27;;;;;;;17.48;12.73;;;;;;;15.68;78.72;101276.38;5115382;27;20047;-67
2021/07/01 04:13:55;;;;;;;17.27;12.40;;;;;;;15.54;79.19;101275.78;5098660;27;20058;-68
2021/07/01 04:16:41;;;;;;;18.58;12.23;;;;;;;15.32;80.43;101276.00;5115041;27;20054;-67
2021/07/01 04:23:58;;;;;;;17.67;12.23;;;;;;;15.69;78.55;101273.25;5050169;28;20079;-69
2021/07/01 04:26:50;;;;;;;15.95;12.55;;;;;;;16.07;77.21;101277.94;5049837;28;20041;-69
2021/07/01 04:29:22;;;;;;;18.77;11.82;;;;;;;16.17;76.90;101269.22;5033000;28;20060;-69
2021/07/01 04:31:52;;;;;;;20.63;13.23;;;;;;;16.14;76.55;101284.63;5018319;28;20057;-66
2021/07/01 04:34:20;;;;;;;16.80;12.68;;;;;;;15.81;77.69;101275.34;5050519;28;20044;-67
2021/07/01 04:36:47;;;;;;;19.08;13.07;;;;;;;15.88;77.77;101277.56;5050240;28;20053;-67
2021/07/01 04:39:15;;;;;;;17.77;12.93;;;;;;;16.11;77.08;101290.03;5049895;28;20056;-67
2021/07/01 04:41:53;;;;;;;19.52;13.00;;;;;;;16.08;77.14;101288.72;5034740;28;20072;-66
2021/07/01 04:44:23;;;;;;;18.95;13.13;;;;;;;16.28;76.07;101293.53;5050023;28;20052;-67
2021/07/01 04:46:50;;;;;;;18.45;12.20;;;;;;;15.99;76.80;101301.06;5050502;28;20565;-69
2021/07/01 04:49:18;;;;;;;20.90;14.50;;;;;;;16.04;76.34;101298.09;5049352;28;20069;-66
2021/07/01 04:52:05;;;;;;;17.00;13.48;;;;;;;16.03;76.85;101302.81;5029512;28;20439;-69
2021/07/01 04:54:51;;;;;;;17.83;13.05;;;;;;;16.10;76.56;101299.50;5030125;28;20173;-68
2021/07/01 04:57:37;;;;;;;20.50;14.35;;;;;;;15.87;77.60;101298.16;5080554;28;20543;-67
2021/07/01 05:00:06;;;;;;;18.60;12.98;;;;;;;16.00;76.88;101302.69;5072967;28;20052;-67
2021/07/01 05:03:00;;;;;;;24.38;14.77;;;;;;;16.20;76.45;101302.72;5059477;28;20044;-68
2021/07/01 05:09:39;;;;;;;23.23;13.82;;;;;;;16.05;76.34;101306.09;5088867;28;20044;-66
2021/07/01 05:12:24;;;;;;;20.23;14.18;;;;;;;16.15;76.23;101304.88;5072693;28;20040;-66
2021/07/01 05:14:51;;;;;;;20.08;13.50;;;;;;;16.25;76.29;101312.84;5072742;28;20075;-68
2021/07/01 05:17:18;;;;;;;20.35;14.60;;;;;;;16.43;75.41;101304.03;5089871;28;20055;-67
2021/07/01 05:19:46;;;;;;;18.92;13.95;;;;;;;16.32;75.79;101307.56;5072804;28;20064;-66
2021/07/01 05:22:17;;;;;;;23.02;14.80;;;;;;;16.47;75.30;101307.81;5055583;28;20055;-65
2021/07/01 05:25:23;;;;;;;22.45;14.57;;;;;;;16.44;75.11;101308.44;4990481;28;20058;-66
2021/07/01 05:28:10;;;;;;;23.50;13.90;;;;;;;16.48;75.46;101311.38;4990389;28;20563;-67
2021/07/01 05:31:00;;;;;;;19.45;13.80;;;;;;;16.64;75.04;101306.84;5029667;28;20156;-66
2021/07/01 05:33:46;;;;;;;22.02;14.02;;;;;;;16.44;75.03;101310.41;5030209;28;20069;-67
2021/07/01 05:40:42;;;;;;;20.48;13.40;;;;;;;16.21;76.26;101317.44;5029319;28;20053;-66
2021/07/01 05:43:10;;;;;;;20.45;12.80;;;;;;;16.36;75.98;101325.19;5029707;28;20057;-66
2021/07/01 05:45:38;;;;;;;20.60;14.00;;;;;;;16.57;75.37;101321.31;5045643;28;20120;-66
2021/07/01 05:48:08;;;;;;;19.08;13.10;;;;;;;16.37;75.79;101319.28;5029338;28;20053;-66
2021/07/01 05:55:02;;;;;;;20.33;13.70;;;;;;;16.66;75.07;101321.22;5029482;28;20045;-66
2021/07/01 05:57:29;;;;;;;22.25;12.80;;;;;;;16.61;74.55;101322.25;5096728;28;20059;-67
2021/07/01 05:59:59;;;;;;;19.33;13.13;;;;;;;16.74;73.36;101317.56;5132348;28;20051;-68
2021/07/01 06:02:26;;;;;;;19.63;12.98;;;;;;;17.13;72.68;101316.22;5131524;28;20055;-66
2021/07/01 06:04:54;;;;;;;17.45;12.77;;;;;;;17.23;71.07;101321.34;5134474;27;20371;-67
2021/07/01 06:07:25;;;;;;;16.98;12.68;;;;;;;17.14;71.22;101321.44;5136757;27;20039;-66
2021/07/01 06:09:54;;;;;;;21.33;11.75;;;;;;;17.01;70.75;101321.75;5083706;27;20047;-67
2021/07/01 06:12:23;;;;;;;18.77;12.23;;;;;;;16.99;71.07;101319.31;5135328;27;20062;-66
2021/07/01 06:14:58;;;;;;;18.60;13.25;;;;;;;17.26;69.89;101318.69;5136097;27;20062;-66
2021/07/01 06:17:32;;;;;;;20.75;12.52;;;;;;;17.27;69.58;101317.56;5135998;27;20040;-66
2021/07/01 06:20:06;;;;;;;15.60;11.05;;;;;;;17.31;68.98;101321.25;5101221;27;20373;-68
2021/07/01 06:22:33;;;;;;;13.90;10.68;;;;;;;17.24;68.72;101323.81;5117946;27;20504;-65
2021/07/01 06:25:05;;;;;;;17.40;12.45;;;;;;;16.79;70.03;101323.72;5135670;27;20043;-68
2021/07/01 06:27:35;;;;;;;16.77;11.32;;;;;;;16.76;71.10;101318.84;5135116;27;20135;-67
2021/07/01 06:30:11;;;;;;;16.40;10.57;;;;;;;17.41;69.15;101323.63;5135246;27;20393;-67
2021/07/01 06:32:44;;;;;;;13.35;10.00;;;;;;;17.16;68.22;101327.47;5116964;27;20047;-69
2021/07/01 06:35:13;;;;;;;17.77;10.10;;;;;;;16.78;69.48;101330.47;5135334;27;20409;-68
2021/07/01 06:37:48;;;;;;;17.15;8.75;;;;;;;16.69;69.00;101332.50;5117149;27;20063;-67
2021/07/01 06:40:41;;;;;;;15.02;10.32;;;;;;;16.42;70.12;101335.75;5135817;27;20047;-68
2021/07/01 06:43:30;;;;;;;13.40;9.45;;;;;;;16.76;69.84;101323.59;5119919;27;20064;-68
2021/07/01 06:46:17;;;;;;;16.02;9.25;;;;;;;17.12;68.13;101334.88;5106186;27;20039;-67
2021/07/01 06:49:06;;;;;;;12.68;8.88;;;;;;;17.56;67.13;101327.72;5134500;27;20051;-67
2021/07/01 06:56:22;;;;;;;17.50;11.27;;;;;;;17.76;65.59;101333.25;5135275;27;20039;-71
2021/07/01 06:58:49;;;;;;;18.52;12.45;;;;;;;18.08;64.72;101330.69;5117172;27;20113;-73
2021/07/01 07:01:18;;;;;;;18.75;13.55;;;;;;;17.81;65.11;101327.44;5135571;27;20050;-73
2021/07/01 07:03:46;;;;;;;16.17;11.63;;;;;;;17.78;65.03;101339.25;5135086;27;20043;-69
2021/07/01 07:06:15;;;;;;;22.38;11.60;;;;;;;17.71;65.53;101346.59;5099738;27;20047;-74
2021/07/01 07:08:43;;;;;;;18.57;11.50;;;;;;;17.19;65.53;101337.91;5099659;27;20043;-72
2021/07/01 07:11:11;;;;;;;16.80;11.25;;;;;;;17.49;65.79;101346.97;5097876;27;20043;-69
2021/07/01 07:13:44;;;;;;;18.95;11.35;;;;;;;17.27;66.06;101350.13;5115961;27;20047;-70
2021/07/01 07:16:16;;;;;;;22.02;11.52;;;;;;;17.16;65.82;101343.38;5126788;27;20058;-72
2021/07/01 07:18:44;;;;;;;18.10;11.90;;;;;;;17.36;65.26;101339.72;5116650;27;20051;-71
2021/07/01 07:21:18;;;;;;;18.25;11.02;;;;;;;17.61;65.22;101352.56;5116446;27;20051;-70
2021/07/01 07:23:54;;;;;;;17.02;12.18;;;;;;;17.50;64.60;101346.66;5116474;27;20378;-69
2021/07/01 07:26:24;;;;;;;20.15;11.93;;;;;;;17.63;64.37;101350.25;5134824;27;20486;-71
2021/07/01 07:28:55;;;;;;;;;;;;;;;17.58;64.58;101351.31;5116105;27;20059;-69
2021/07/01 07:31:28;;;;;;;27.73;12.20;;;;;;;18.01;64.39;101344.41;5116364;27;19945;-70
2021/07/01 07:33:59;;;;;;;19.58;12.70;;;;;;;18.42;62.42;101355.31;5116562;27;20047;-70
2021/07/01 07:36:27;;;;;;;20.90;13.75;;;;;;;18.34;61.89;101347.88;5134218;27;20129;-70
2021/07/01 07:39:04;;;;;;;21.58;14.60;;;;;;;17.50;63.55;101343.06;5099369;27;20055;-72
2021/07/01 07:41:32;;;;;;;22.88;15.30;;;;;;;17.73;63.72;101344.28;5115382;27;20043;-71
2021/07/01 07:44:02;;;;;;;23.15;14.48;;;;;;;17.89;62.55;101339.63;5134599;27;20045;-71
2021/07/01 07:46:31;;;;;;;24.40;14.70;;;;;;;18.12;62.15;101339.97;5115297;27;20047;-72
2021/07/01 07:49:05;;;;;;;23.40;14.85;;;;;;;17.98;62.08;101349.50;5133615;27;20073;-72
2021/07/01 07:51:34;;;;;;;25.38;17.23;;;;;;;17.28;64.30;101341.44;5098000;27;20057;-71
2021/07/01 07:54:06;;;;;;;23.65;17.15;;;;;;;17.65;64.67;101345.16;5538550;22;20044;-72
2021/07/01 07:56:37;;;;;;;25.95;16.10;;;;;;;18.10;63.36;101353.47;5062742;28;20053;-71
2021/07/01 07:59:07;;;;;;;21.45;15.15;;;;;;;19.19;60.20;101342.91;5053185;28;20044;-73
2021/07/01 08:01:34;;;;;;;23.50;15.85;;;;;;;19.14;59.49;101343.16;5047688;28;20059;-71
2021/07/01 08:04:05;;;;;;;22.52;14.77;;;;;;;19.02;59.74;101344.03;5060975;28;20049;-70
2021/07/01 08:06:33;;;;;;;31.15;16.35;;;;;;;19.00;60.72;101344.34;5046545;28;20313;-70
2021/07/01 08:09:04;;;;;;;22.80;14.55;;;;;;;19.58;58.50;101336.44;5046585;28;20040;-73
2021/07/01 08:11:35;;;;;;;20.98;15.70;;;;;;;19.06;59.74;101344.91;5069301;28;20041;-71
2021/07/01 08:14:02;;;;;;;20.48;13.88;;;;;;;18.47;61.27;101344.75;5051418;28;20057;-69
2021/07/01 08:16:30;;;;;;;20.92;13.27;;;;;;;18.86;60.94;101345.94;5070404;28;20083;-69
2021/07/01 08:18:59;;;;;;;18.83;13.18;;;;;;;19.45;58.00;101334.88;5071386;28;20380;-69
2021/07/01 08:21:28;;;;;;;19.08;14.05;;;;;;;18.64;60.55;101326.91;5069130;28;20045;-73
2021/07/01 08:23:58;;;;;;;16.67;11.88;;;;;;;18.43;60.91;101331.88;5064061;28;20045;-75
2021/07/01 08:26:26;;;;;;;19.55;11.80;;;;;;;18.08;62.41;101336.28;5049537;28;20376;-71
2021/07/01 08:28:54;;;;;;;19.75;11.70;;;;;;;18.30;61.95;101328.25;5049962;28;20071;-72
2021/07/01 08:31:22;;;;;;;15.38;11.65;;;;;;;19.00;61.18;101330.41;5066415;28;20064;-70
2021/07/01 08:33:52;;;;;;;;;;;;;;;19.20;58.67;101327.75;5051138;28;20057;-77
2021/07/01 08:36:23;;;;;;;16.35;12.82;;;;;;;18.48;61.05;101326.84;5070866;28;19924;-74
2021/07/01 08:38:55;;;;;;;14.85;12.15;;;;;;;18.47;61.74;101325.22;5051871;28;20060;-70
2021/07/01 08:41:25;;;;;;;15.63;11.23;;;;;;;18.17;62.20;101323.00;5066541;28;20060;-71
2021/07/01 08:44:00;;;;;;;17.48;12.38;;;;;;;18.05;62.83;101318.25;5042379;28;20049;-72
2021/07/01 08:46:29;;;;;;;18.25;12.73;;;;;;;18.00;63.36;101335.22;5024559;28;20057;-71
2021/07/01 08:49:08;;;;;;;15.50;11.65;;;;;;;18.45;61.45;101333.13;5033214;28;20049;-76
2021/07/01 08:51:45;;;;;;;18.80;11.80;;;;;;;18.78;60.16;101330.94;5050594;28;20059;-73
2021/07/01 08:54:29;;;;;;;18.77;11.85;;;;;;;18.33;60.85;101335.91;5032169;28;20487;-73
2021/07/01 08:56:57;;;;;;;14.90;11.98;;;;;;;17.83;62.61;101339.06;5026009;28;20052;-71
2021/07/01 08:59:38;;;;;;;17.25;11.48;;;;;;;17.75;62.87;101328.81;5069171;28;20484;-72
2021/07/01 09:02:10;;;;;;;17.70;12.38;;;;;;;17.83;62.08;101325.13;5050501;28;20049;-71
2021/07/01 09:04:48;;;;;;;17.45;11.10;;;;;;;17.89;62.29;101323.72;5066734;28;20459;-72
2021/07/01 09:07:24;;;;;;;22.55;11.15;;;;;;;18.73;60.15;101319.22;5052664;28;20387;-70
2021/07/01 09:09:57;;;;;;;17.27;11.02;;;;;;;19.02;59.75;101318.91;5052750;28;20060;-69
2021/07/01 09:12:26;;;;;;;19.08;11.85;;;;;;;18.81;60.54;101315.50;5046684;28;20040;-71
2021/07/01 09:14:58;;;;;;;24.70;12.40;;;;;;;18.49;60.80;101320.09;5043693;28;20048;-69
2021/07/01 09:17:29;;;;;;;15.00;11.35;;;;;;;18.83;60.95;101322.31;5049895;28;20053;-70
2021/07/01 09:20:00;;;;;;;14.95;11.52;;;;;;;19.06;60.84;101322.59;5042113;28;20056;-70
2021/07/01 09:22:28;;;;;;;18.92;11.32;;;;;;;19.23;60.89;101327.84;5052583;28;20052;-71
2021/07/01 09:24:56;;;;;;;15.77;11.75;;;;;;;19.47;59.24;101315.78;5063177;28;20056;-69
2021/07/01 09:27:28;;;;;;;21.48;11.52;;;;;;;19.20;60.56;101316.56;5051628;28;20056;-73
2021/07/01 09:29:57;;;;;;;17.10;12.18;;;;;;;18.71;61.31;101327.94;5069495;28;20048;-70
2021/07/01 09:32:28;;;;;;;18.55;13.20;;;;;;;18.45;62.22;101321.97;5052290;28;20295;-71
2021/07/01 09:34:56;;;;;;;19.85;12.80;;;;;;;18.49;62.32;101325.69;5052061;28;20041;-71
2021/07/01 09:37:23;;;;;;;20.60;13.13;;;;;;;18.58;62.60;101326.38;5051731;28;20040;-71
2021/07/01 09:39:51;;;;;;;16.50;10.82;;;;;;;19.09;60.22;101330.25;5021927;28;20111;-71
2021/07/01 09:42:20;;;;;;;14.68;11.60;;;;;;;19.16;59.25;101321.28;5042259;28;20472;-73
2021/07/01 09:44:47;;;;;;;18.80;11.15;;;;;;;19.45;58.81;101318.94;5056647;28;20053;-71
2021/07/01 09:47:15;;;;;;;17.02;11.73;;;;;;;19.50;58.55;101323.44;5025906;28;20056;-71
2021/07/01 09:49:43;;;;;;;18.88;12.70;;;;;;;19.48;57.94;101325.78;5052650;28;20060;-71
2021/07/01 09:52:13;;;;;;;15.50;11.20;;;;;;;18.75;59.20;101342.84;5052163;28;20399;-71
2021/07/01 09:54:48;;;;;;;19.63;12.50;;;;;;;18.75;59.87;101330.84;5035353;28;20068;-71
2021/07/01 09:57:23;;;;;;;18.48;11.52;;;;;;;18.94;59.54;101333.81;5068143;28;20068;-72
2021/07/01 09:59:58;;;;;;;13.82;11.00;;;;;;;19.01;58.97;101331.22;5071189;28;20048;-72
2021/07/01 10:02:25;;;;;;;17.13;11.80;;;;;;;18.88;59.62;101333.22;5046011;28;20040;-69
2021/07/01 10:04:53;;;;;;;12.07;8.02;;;;;;;20.11;59.51;101321.81;5072443;28;20060;-60
2021/07/01 10:07:22;;;;;;;12.05;8.98;;;;;;;21.35;54.88;101314.16;5073352;28;20056;-61
2021/07/01 10:09:55;;;;;;;11.68;8.48;;;;;;;22.10;52.03;101301.91;5059073;28;20508;-66
2021/07/01 10:12:29;;;;;;;13.60;8.18;;;;;;;22.52;50.39;101317.75;5068118;28;20045;-63
2021/07/01 10:15:01;;;;;;;16.17;11.48;;;;;;;21.51;52.17;101312.88;5073240;28;20049;-64
2021/07/01 10:17:30;;;;;;;17.73;11.23;;;;;;;21.34;52.94;101307.75;5072948;28;20059;-62
2021/07/01 10:20:11;;;;;;;12.15;8.80;;;;;;;21.91;51.00;101304.00;5068064;28;20061;-64
2021/07/01 10:22:40;;;;;;;13.73;9.15;;;;;;;22.35;49.51;101303.09;5054703;28;20048;-61
2021/07/01 10:25:09;;;;;;;15.52;10.40;;;;;;;21.57;51.00;101319.78;5051428;28;20057;-60
2021/07/01 10:27:40;;;;;;;14.38;11.27;;;;;;;20.83;52.94;101320.28;5049534;28;20056;-60
2021/07/01 10:30:18;;;;;;;14.77;10.63;;;;;;;21.75;51.41;101304.09;5052846;28;20090;-63
2021/07/01 10:32:48;;;;;;;12.70;9.50;;;;;;;21.82;50.73;101307.06;5035150;28;20041;-59
2021/07/01 10:35:35;;;;;;;16.10;10.77;;;;;;;21.63;51.58;101311.88;5052665;28;20527;-60
2021/07/01 10:38:12;;;;;;;12.85;9.23;;;;;;;22.22;50.09;101310.13;5052897;28;20064;-59
2021/07/01 10:40:49;;;;;;;15.15;11.07;;;;;;;22.46;49.47;101313.66;5050135;28;20048;-61
2021/07/01 10:43:18;;;;;;;12.75;9.02;;;;;;;22.67;48.52;101314.81;5051884;28;20052;-60
2021/07/01 10:45:56;;;;;;;12.25;9.35;;;;;;;22.23;49.75;101308.91;5053324;28;20057;-65
2021/07/01 10:48:25;;;;;;;10.48;7.85;;;;;;;22.62;48.79;101308.69;5052985;28;20449;-62
2021/07/01 10:51:05;;;;;;;14.60;10.90;;;;;;;21.67;49.81;101310.75;5052453;28;20040;-62
2021/07/01 10:53:37;;;;;;;10.88;8.77;;;;;;;22.32;50.06;101317.06;5063568;28;20056;-66
2021/07/01 10:56:25;;;;;;;15.32;8.50;;;;;;;22.58;49.10;101319.09;5071345;28;20056;-61
2021/07/01 10:58:58;;;;;;;16.55;11.05;;;;;;;22.14;49.54;101310.38;5073963;28;20061;-61
2021/07/01 11:01:30;;;;;;;15.25;11.07;;;;;;;22.46;49.29;101314.47;5073589;28;20049;-60
2021/07/01 11:04:14;;;;;;;14.30;8.15;;;;;;;22.51;48.84;101307.72;5073189;28;20060;-63
2021/07/01 11:06:57;;;;;;;14.50;10.70;;;;;;;22.45;48.89;101306.44;5073461;28;20056;-66
2021/07/01 11:09:41;;;;;;;10.60;8.32;;;;;;;22.71;48.23;101306.44;5073634;28;20052;-53
2021/07/01 11:12:17;;;;;;;14.90;8.98;;;;;;;22.79;47.81;101310.94;5057045;28;20082;-57
2021/07/01 11:14:46;;;;;;;15.95;9.30;;;;;;;22.98;47.55;101305.19;5038990;28;20052;-62
2021/07/01 11:17:14;;;;;;;14.63;10.37;;;;;;;22.88;47.20;101305.84;5056042;28;20056;-66
2021/07/01 11:19:46;;;;;;;13.77;9.65;;;;;;;22.66;47.88;101312.38;5055403;28;20283;-61
2021/07/01 11:22:14;;;;;;;14.50;10.80;;;;;;;22.52;47.90;101312.97;5073276;28;20052;-62
2021/07/01 11:24:43;;;;;;;11.00;8.18;;;;;;;22.74;48.01;101306.47;5072828;28;20417;-61
2021/07/01 11:27:12;;;;;;;13.23;8.57;;;;;;;22.88;47.77;101312.28;5073394;28;20044;-58
2021/07/01 11:29:44;;;;;;;16.10;11.07;;;;;;;22.54;47.71;101319.06;5072832;28;20059;-58
2021/07/01 11:32:21;;;;;;;13.82;10.75;;;;;;;21.37;49.79;101323.84;5055364;28;20402;-56
2021/07/01 11:34:50;;;;;;;15.00;10.32;;;;;;;21.40;51.55;101316.66;5072937;28;20403;-57
2021/07/01 11:37:38;;;;;;;14.25;9.93;;;;;;;22.20;49.26;101315.31;5072756;28;20063;-58
2021/07/01 11:40:19;;;;;;;14.27;9.20;;;;;;;22.28;48.93;101313.41;5054606;28;20052;-62
2021/07/01 11:42:49;;;;;;;13.25;9.48;;;;;;;22.64;47.91;101306.31;5055446;28;20053;-61
2021/07/01 11:45:18;;;;;;;14.38;10.07;;;;;;;21.86;48.77;101321.94;5073177;28;20040;-62
2021/07/01 11:47:46;;;;;;;14.70;10.20;;;;;;;21.24;51.12;101322.38;5073002;28;20395;-59
2021/07/01 11:50:14;;;;;;;17.17;10.05;;;;;;;21.96;49.96;101309.28;5055033;28;20044;-57
2021/07/01 11:52:42;;;;;;;17.27;10.32;;;;;;;22.42;48.18;101307.97;5054693;28;20045;-57
2021/07/01 11:55:13;;;;;;;14.68;10.10;;;;;;;21.83;49.60;101305.03;5072961;28;20049;-59
2021/07/01 11:57:40;;;;;;;14.35;9.93;;;;;;;22.11;49.37;101311.13;5072869;28;20075;-61
2021/07/01 12:00:08;;;;;;;13.93;10.48;;;;;;;21.76;49.41;101307.72;5073308;28;20041;-62
2021/07/01 12:02:39;;;;;;;14.60;10.55;;;;;;;22.09;49.08;101308.69;5072611;28;20037;-59
2021/07/01 12:05:07;;;;;;;14.88;10.43;;;;;;;22.22;48.40;101306.50;5072295;28;20051;-62
2021/07/01 12:07:35;;;;;;;12.88;8.93;;;;;;;22.40;48.69;101303.97;5072788;28;20041;-63
2021/07/01 12:10:06;;;;;;;16.77;10.57;;;;;;;22.15;49.04;101309.19;5072693;28;20349;-58
2021/07/01 12:12:34;;;;;;;13.02;9.40;;;;;;;22.34;49.04;101309.91;5072712;28;20051;-60
2021/07/01 12:15:10;;;;;;;15.32;9.23;;;;;;;22.70;47.80;101310.44;5071004;28;20056;-58
2021/07/01 12:17:49;;;;;;;11.52;8.07;;;;;;;22.82;47.82;101308.16;5071997;28;20071;-59
2021/07/01 12:20:30;;;;;;;13.00;8.90;;;;;;;22.99;47.67;101303.97;5072842;28;20067;-58
2021/07/01 12:23:00;;;;;;;12.63;8.50;;;;;;;23.07;47.46;101300.06;5072037;28;20520;-59
2021/07/01 12:25:27;;;;;;;15.02;8.65;;;;;;;23.22;47.09;101304.66;5071533;28;20407;-60
2021/07/01 12:31:05;;;;;;;10.15;7.85;;;;;;;23.26;47.33;101305.47;4942871;23;20066;-59